sensor_id;sensor_type;location;lat;lon;timestamp;temperature;humidity
22532;DHT22;11432;46.924;7.114;2022-10-17T00:01:01;13.20;99.90
22532;DHT22;11432;46.924;7.114;2022-10-17T00:03:27;13.10;99.90
22532;DHT22;11432;46.924;7.114;2022-10-17T00:05:53;13.10;99.90
22532;DHT22;11432;46.924;7.114;2022-10-17T00:08:18;13.10;99.90
22532;DHT22;11432;46.924;7.114;2022-10-17T00:10:45;13.00;99.90
22532;DHT22;11432;46.924;7.114;2022-10-17T00:13:19;13.10;99.90
22532;DHT22;11432;46.924;7.114;2022-10-17T00:15:44;13.10;99.90
22532;DHT22;11432;46.924;7.114;2022-10-17T00:18:10;13.10;99.90
22532;DHT22;11432;46.924;7.114;2022-10-17T00:20:36;13.10;99.90
22532;DHT22;11432;46.924;7.114;2022-10-17T00:23:01;13.10;99.90
22532;DHT22;11432;46.924;7.114;2022-10-17T00:25:27;13.00;99.90
22532;DHT22;11432;46.924;7.114;2022-10-17T00:27:52;12.90;99.90
22532;DHT22;11432;46.924;7.114;2022-10-17T00:30:18;12.90;99.90
22532;DHT22;11432;46.924;7.114;2022-10-17T00:32:44;12.80;99.90
22532;DHT22;11432;46.924;7.114;2022-10-17T00:35:09;12.80;99.90
22532;DHT22;11432;46.924;7.114;2022-10-17T00:37:35;12.80;99.90
22532;DHT22;11432;46.924;7.114;2022-10-17T00:40:01;12.80;99.90
22532;DHT22;11432;46.924;7.114;2022-10-17T00:42:27;12.80;99.90
22532;DHT22;11432;46.924;7.114;2022-10-17T00:45:07;12.80;99.90
22532;DHT22;11432;46.924;7.114;2022-10-17T00:47:37;12.80;99.90
22532;DHT22;11432;46.924;7.114;2022-10-17T00:50:04;12.70;99.90
22532;DHT22;11432;46.924;7.114;2022-10-17T00:52:31;12.70;99.90
22532;DHT22;11432;46.924;7.114;2022-10-17T00:55:13;12.70;99.90
22532;DHT22;11432;46.924;7.114;2022-10-17T00:57:41;12.70;99.90
22532;DHT22;11432;46.924;7.114;2022-10-17T01:00:09;12.70;99.90
22532;DHT22;11432;46.924;7.114;2022-10-17T01:02:36;12.60;99.90
22532;DHT22;11432;46.924;7.114;2022-10-17T01:05:02;12.60;99.90
22532;DHT22;11432;46.924;7.114;2022-10-17T01:07:28;12.50;99.90
22532;DHT22;11432;46.924;7.114;2022-10-17T01:09:55;12.40;99.90
22532;DHT22;11432;46.924;7.114;2022-10-17T01:35:16;12.10;99.90
22532;DHT22;11432;46.924;7.114;2022-10-17T01:37:54;12.00;99.90
22532;DHT22;11432;46.924;7.114;2022-10-17T01:40:34;12.00;99.90
22532;DHT22;11432;46.924;7.114;2022-10-17T01:43:30;12.00;99.90
22532;DHT22;11432;46.924;7.114;2022-10-17T01:46:02;12.10;99.90
22532;DHT22;11432;46.924;7.114;2022-10-17T01:48:35;12.00;99.90
22532;DHT22;11432;46.924;7.114;2022-10-17T01:56:39;12.00;99.90
22532;DHT22;11432;46.924;7.114;2022-10-17T01:59:18;11.90;99.90
22532;DHT22;11432;46.924;7.114;2022-10-17T02:01:50;12.00;99.90
22532;DHT22;11432;46.924;7.114;2022-10-17T02:04:16;12.00;99.90
22532;DHT22;11432;46.924;7.114;2022-10-17T02:06:42;12.00;99.90
22532;DHT22;11432;46.924;7.114;2022-10-17T02:09:26;12.00;99.90
22532;DHT22;11432;46.924;7.114;2022-10-17T02:17:24;11.90;99.90
22532;DHT22;11432;46.924;7.114;2022-10-17T02:30:28;11.80;99.90
22532;DHT22;11432;46.924;7.114;2022-10-17T02:33:04;11.80;99.90
22532;DHT22;11432;46.924;7.114;2022-10-17T02:35:35;11.80;99.90
22532;DHT22;11432;46.924;7.114;2022-10-17T02:38:03;11.80;99.90
22532;DHT22;11432;46.924;7.114;2022-10-17T02:40:30;11.80;99.90
22532;DHT22;11432;46.924;7.114;2022-10-17T02:42:58;11.80;99.90
22532;DHT22;11432;46.924;7.114;2022-10-17T02:45:26;11.70;99.90
22532;DHT22;11432;46.924;7.114;2022-10-17T02:48:09;11.70;99.90
22532;DHT22;11432;46.924;7.114;2022-10-17T02:53:27;11.70;99.90
22532;DHT22;11432;46.924;7.114;2022-10-17T02:55:58;11.60;99.90
22532;DHT22;11432;46.924;7.114;2022-10-17T02:58:29;11.60;99.90
22532;DHT22;11432;46.924;7.114;2022-10-17T03:00:55;11.50;99.90
22532;DHT22;11432;46.924;7.114;2022-10-17T03:03:28;11.40;99.90
22532;DHT22;11432;46.924;7.114;2022-10-17T03:05:54;11.40;99.90
22532;DHT22;11432;46.924;7.114;2022-10-17T03:08:20;11.50;99.90
22532;DHT22;11432;46.924;7.114;2022-10-17T03:10:47;11.50;99.90
22532;DHT22;11432;46.924;7.114;2022-10-17T03:13:13;11.50;99.90
22532;DHT22;11432;46.924;7.114;2022-10-17T03:15:38;11.40;99.90
22532;DHT22;11432;46.924;7.114;2022-10-17T03:18:04;11.40;99.90
22532;DHT22;11432;46.924;7.114;2022-10-17T03:20:30;11.40;99.90
22532;DHT22;11432;46.924;7.114;2022-10-17T03:22:55;11.40;99.90
22532;DHT22;11432;46.924;7.114;2022-10-17T03:25:21;11.30;99.90
22532;DHT22;11432;46.924;7.114;2022-10-17T03:27:46;11.30;99.90
22532;DHT22;11432;46.924;7.114;2022-10-17T03:30:12;11.30;99.90
22532;DHT22;11432;46.924;7.114;2022-10-17T03:32:38;11.30;99.90
22532;DHT22;11432;46.924;7.114;2022-10-17T03:35:04;11.30;99.90
22532;DHT22;11432;46.924;7.114;2022-10-17T03:37:29;11.20;99.90
22532;DHT22;11432;46.924;7.114;2022-10-17T03:39:55;11.30;99.90
22532;DHT22;11432;46.924;7.114;2022-10-17T03:42:21;11.30;99.90
22532;DHT22;11432;46.924;7.114;2022-10-17T03:44:46;11.20;99.90
22532;DHT22;11432;46.924;7.114;2022-10-17T03:47:12;11.20;99.90
22532;DHT22;11432;46.924;7.114;2022-10-17T03:49:37;11.20;99.90
22532;DHT22;11432;46.924;7.114;2022-10-17T03:52:03;11.20;99.90
22532;DHT22;11432;46.924;7.114;2022-10-17T03:54:29;11.20;99.90
22532;DHT22;11432;46.924;7.114;2022-10-17T03:56:54;11.20;99.90
22532;DHT22;11432;46.924;7.114;2022-10-17T03:59:20;11.20;99.90
22532;DHT22;11432;46.924;7.114;2022-10-17T04:01:45;11.20;99.90
22532;DHT22;11432;46.924;7.114;2022-10-17T04:04:11;11.20;99.90
22532;DHT22;11432;46.924;7.114;2022-10-17T04:06:37;11.20;99.90
22532;DHT22;11432;46.924;7.114;2022-10-17T04:09:04;11.10;99.90
22532;DHT22;11432;46.924;7.114;2022-10-17T04:11:30;11.10;99.90
22532;DHT22;11432;46.924;7.114;2022-10-17T04:13:57;11.00;99.90
22532;DHT22;11432;46.924;7.114;2022-10-17T04:16:24;11.00;99.90
22532;DHT22;11432;46.924;7.114;2022-10-17T04:18:54;11.00;99.90
22532;DHT22;11432;46.924;7.114;2022-10-17T04:21:21;11.00;99.90
22532;DHT22;11432;46.924;7.114;2022-10-17T04:23:47;11.00;99.90
22532;DHT22;11432;46.924;7.114;2022-10-17T04:26:12;11.00;99.90
22532;DHT22;11432;46.924;7.114;2022-10-17T04:28:38;11.00;99.90
22532;DHT22;11432;46.924;7.114;2022-10-17T04:31:11;11.00;99.90
22532;DHT22;11432;46.924;7.114;2022-10-17T04:33:37;11.00;99.90
22532;DHT22;11432;46.924;7.114;2022-10-17T04:36:09;11.10;99.90
22532;DHT22;11432;46.924;7.114;2022-10-17T04:38:35;11.10;99.90
22532;DHT22;11432;46.924;7.114;2022-10-17T04:41:03;11.00;99.90
22532;DHT22;11432;46.924;7.114;2022-10-17T04:43:30;11.00;99.90
22532;DHT22;11432;46.924;7.114;2022-10-17T04:45:57;10.90;99.90
22532;DHT22;11432;46.924;7.114;2022-10-17T04:48:23;10.90;99.90
22532;DHT22;11432;46.924;7.114;2022-10-17T04:51:10;10.90;99.90
22532;DHT22;11432;46.924;7.114;2022-10-17T04:53:37;10.90;99.90
22532;DHT22;11432;46.924;7.114;2022-10-17T04:56:18;10.80;99.90
22532;DHT22;11432;46.924;7.114;2022-10-17T04:58:45;10.80;99.90
22532;DHT22;11432;46.924;7.114;2022-10-17T05:01:14;10.80;99.90
22532;DHT22;11432;46.924;7.114;2022-10-17T05:03:40;10.70;99.90
22532;DHT22;11432;46.924;7.114;2022-10-17T05:06:12;10.80;99.90
22532;DHT22;11432;46.924;7.114;2022-10-17T05:08:38;10.70;99.90
22532;DHT22;11432;46.924;7.114;2022-10-17T05:11:04;10.70;99.90
22532;DHT22;11432;46.924;7.114;2022-10-17T05:13:31;10.70;99.90
22532;DHT22;11432;46.924;7.114;2022-10-17T05:16:00;10.70;99.90
22532;DHT22;11432;46.924;7.114;2022-10-17T05:18:26;10.70;99.90
22532;DHT22;11432;46.924;7.114;2022-10-17T05:20:52;10.70;99.90
22532;DHT22;11432;46.924;7.114;2022-10-17T05:23:18;10.70;99.90
22532;DHT22;11432;46.924;7.114;2022-10-17T05:25:43;10.70;99.90
22532;DHT22;11432;46.924;7.114;2022-10-17T05:28:09;10.70;99.90
22532;DHT22;11432;46.924;7.114;2022-10-17T05:30:34;10.60;99.90
22532;DHT22;11432;46.924;7.114;2022-10-17T05:33:01;10.60;99.90
22532;DHT22;11432;46.924;7.114;2022-10-17T05:35:27;10.60;99.90
22532;DHT22;11432;46.924;7.114;2022-10-17T05:37:52;10.60;99.90
22532;DHT22;11432;46.924;7.114;2022-10-17T05:40:18;10.60;99.90
22532;DHT22;11432;46.924;7.114;2022-10-17T05:42:47;10.70;99.90
22532;DHT22;11432;46.924;7.114;2022-10-17T05:45:14;10.70;99.90
22532;DHT22;11432;46.924;7.114;2022-10-17T05:47:39;10.70;99.90
22532;DHT22;11432;46.924;7.114;2022-10-17T05:50:06;10.70;99.90
22532;DHT22;11432;46.924;7.114;2022-10-17T05:52:32;10.70;99.90
22532;DHT22;11432;46.924;7.114;2022-10-17T05:54:58;10.80;99.90
22532;DHT22;11432;46.924;7.114;2022-10-17T05:57:24;10.80;99.90
22532;DHT22;11432;46.924;7.114;2022-10-17T05:59:50;10.90;99.90
22532;DHT22;11432;46.924;7.114;2022-10-17T06:02:16;10.90;99.90
22532;DHT22;11432;46.924;7.114;2022-10-17T06:04:42;10.90;99.90
22532;DHT22;11432;46.924;7.114;2022-10-17T06:07:14;11.00;99.90
22532;DHT22;11432;46.924;7.114;2022-10-17T06:09:39;11.00;99.90
22532;DHT22;11432;46.924;7.114;2022-10-17T06:12:06;11.00;99.90
22532;DHT22;11432;46.924;7.114;2022-10-17T06:14:31;11.00;99.90
22532;DHT22;11432;46.924;7.114;2022-10-17T06:16:57;10.90;99.90
22532;DHT22;11432;46.924;7.114;2022-10-17T06:19:23;10.90;99.90
22532;DHT22;11432;46.924;7.114;2022-10-17T06:21:49;11.00;99.90
22532;DHT22;11432;46.924;7.114;2022-10-17T06:24:15;11.10;99.90
22532;DHT22;11432;46.924;7.114;2022-10-17T06:26:40;11.20;99.90
22532;DHT22;11432;46.924;7.114;2022-10-17T06:29:06;11.20;99.90
22532;DHT22;11432;46.924;7.114;2022-10-17T06:31:31;11.10;99.90
22532;DHT22;11432;46.924;7.114;2022-10-17T06:33:57;11.20;99.90
22532;DHT22;11432;46.924;7.114;2022-10-17T06:36:23;11.10;99.90
22532;DHT22;11432;46.924;7.114;2022-10-17T06:38:48;11.20;99.90
22532;DHT22;11432;46.924;7.114;2022-10-17T06:41:15;11.20;99.90
22532;DHT22;11432;46.924;7.114;2022-10-17T06:43:44;11.20;99.90
22532;DHT22;11432;46.924;7.114;2022-10-17T06:46:11;11.20;99.90
22532;DHT22;11432;46.924;7.114;2022-10-17T06:48:36;11.20;99.90
22532;DHT22;11432;46.924;7.114;2022-10-17T06:51:04;11.30;99.90
22532;DHT22;11432;46.924;7.114;2022-10-17T06:53:32;11.40;99.90
22532;DHT22;11432;46.924;7.114;2022-10-17T06:55:57;11.40;99.90
22532;DHT22;11432;46.924;7.114;2022-10-17T06:58:33;11.40;99.90
22532;DHT22;11432;46.924;7.114;2022-10-17T07:01:11;11.50;99.90
22532;DHT22;11432;46.924;7.114;2022-10-17T07:03:38;11.50;99.90
22532;DHT22;11432;46.924;7.114;2022-10-17T07:06:04;11.60;99.90
22532;DHT22;11432;46.924;7.114;2022-10-17T07:08:30;11.70;99.90
22532;DHT22;11432;46.924;7.114;2022-10-17T07:10:56;11.70;99.90
22532;DHT22;11432;46.924;7.114;2022-10-17T07:13:22;11.80;99.90
22532;DHT22;11432;46.924;7.114;2022-10-17T07:15:48;11.80;99.90
22532;DHT22;11432;46.924;7.114;2022-10-17T07:18:13;11.80;99.90
22532;DHT22;11432;46.924;7.114;2022-10-17T07:20:39;11.80;99.90
22532;DHT22;11432;46.924;7.114;2022-10-17T07:23:05;12.00;99.90
22532;DHT22;11432;46.924;7.114;2022-10-17T07:25:31;12.00;99.90
22532;DHT22;11432;46.924;7.114;2022-10-17T07:27:56;12.10;99.90
22532;DHT22;11432;46.924;7.114;2022-10-17T07:30:22;12.10;99.90
22532;DHT22;11432;46.924;7.114;2022-10-17T07:32:48;12.10;99.90
22532;DHT22;11432;46.924;7.114;2022-10-17T07:35:17;12.10;99.90
22532;DHT22;11432;46.924;7.114;2022-10-17T07:37:42;12.20;99.90
22532;DHT22;11432;46.924;7.114;2022-10-17T07:40:08;12.30;99.90
22532;DHT22;11432;46.924;7.114;2022-10-17T07:42:37;12.30;99.90
22532;DHT22;11432;46.924;7.114;2022-10-17T07:45:04;12.40;99.90
22532;DHT22;11432;46.924;7.114;2022-10-17T07:47:30;12.50;99.90
22532;DHT22;11432;46.924;7.114;2022-10-17T07:49:57;12.60;99.90
22532;DHT22;11432;46.924;7.114;2022-10-17T07:52:23;12.80;99.90
22532;DHT22;11432;46.924;7.114;2022-10-17T07:54:48;12.80;99.90
22532;DHT22;11432;46.924;7.114;2022-10-17T07:57:14;12.90;99.90
22532;DHT22;11432;46.924;7.114;2022-10-17T07:59:40;13.00;99.90
22532;DHT22;11432;46.924;7.114;2022-10-17T08:02:07;13.10;99.90
22532;DHT22;11432;46.924;7.114;2022-10-17T08:04:34;13.20;99.90
22532;DHT22;11432;46.924;7.114;2022-10-17T08:07:00;13.30;99.90
22532;DHT22;11432;46.924;7.114;2022-10-17T08:09:26;13.30;99.90
22532;DHT22;11432;46.924;7.114;2022-10-17T08:11:52;13.30;99.90
22532;DHT22;11432;46.924;7.114;2022-10-17T08:14:18;13.30;99.90
22532;DHT22;11432;46.924;7.114;2022-10-17T08:16:44;13.40;99.90
22532;DHT22;11432;46.924;7.114;2022-10-17T08:19:10;13.50;99.90
22532;DHT22;11432;46.924;7.114;2022-10-17T08:21:37;13.70;99.90
22532;DHT22;11432;46.924;7.114;2022-10-17T08:24:03;13.80;99.90
22532;DHT22;11432;46.924;7.114;2022-10-17T08:26:29;13.90;99.90
22532;DHT22;11432;46.924;7.114;2022-10-17T08:28:55;14.10;99.90
22532;DHT22;11432;46.924;7.114;2022-10-17T08:31:21;14.20;99.90
22532;DHT22;11432;46.924;7.114;2022-10-17T08:33:48;14.20;99.90
22532;DHT22;11432;46.924;7.114;2022-10-17T08:36:16;14.30;99.90
22532;DHT22;11432;46.924;7.114;2022-10-17T08:38:43;14.20;99.90
22532;DHT22;11432;46.924;7.114;2022-10-17T08:44:13;14.50;99.90
22532;DHT22;11432;46.924;7.114;2022-10-17T08:46:46;14.40;99.90
22532;DHT22;11432;46.924;7.114;2022-10-17T08:49:21;14.40;99.90
22532;DHT22;11432;46.924;7.114;2022-10-17T08:51:55;14.50;99.90
22532;DHT22;11432;46.924;7.114;2022-10-17T08:54:37;14.50;99.90
22532;DHT22;11432;46.924;7.114;2022-10-17T08:57:12;14.50;99.90
22532;DHT22;11432;46.924;7.114;2022-10-17T08:59:39;14.40;99.90
22532;DHT22;11432;46.924;7.114;2022-10-17T09:13:05;14.00;99.90
22532;DHT22;11432;46.924;7.114;2022-10-17T09:18:30;14.00;99.90
22532;DHT22;11432;46.924;7.114;2022-10-17T09:23:50;14.40;99.90
22532;DHT22;11432;46.924;7.114;2022-10-17T09:26:17;14.60;99.90
22532;DHT22;11432;46.924;7.114;2022-10-17T09:28:43;14.80;99.90
22532;DHT22;11432;46.924;7.114;2022-10-17T09:31:22;15.00;99.90
22532;DHT22;11432;46.924;7.114;2022-10-17T09:33:50;15.20;99.90
22532;DHT22;11432;46.924;7.114;2022-10-17T09:36:19;15.40;99.90
22532;DHT22;11432;46.924;7.114;2022-10-17T09:38:54;15.50;99.90
22532;DHT22;11432;46.924;7.114;2022-10-17T09:41:46;15.70;99.90
22532;DHT22;11432;46.924;7.114;2022-10-17T09:44:15;15.80;99.90
22532;DHT22;11432;46.924;7.114;2022-10-17T09:49:28;16.00;1.00
22532;DHT22;11432;46.924;7.114;2022-10-17T09:51:55;16.00;1.00
22532;DHT22;11432;46.924;7.114;2022-10-17T09:54:26;16.00;1.00
22532;DHT22;11432;46.924;7.114;2022-10-17T09:57:05;16.00;1.00
22532;DHT22;11432;46.924;7.114;2022-10-17T09:59:36;16.00;1.00
22532;DHT22;11432;46.924;7.114;2022-10-17T10:02:14;16.00;1.00
22532;DHT22;11432;46.924;7.114;2022-10-17T10:07:21;16.30;1.00
22532;DHT22;11432;46.924;7.114;2022-10-17T10:09:48;16.20;1.00
22532;DHT22;11432;46.924;7.114;2022-10-17T10:12:40;16.30;1.00
22532;DHT22;11432;46.924;7.114;2022-10-17T10:15:34;16.40;1.00
22532;DHT22;11432;46.924;7.114;2022-10-17T10:18:00;16.70;1.00
22532;DHT22;11432;46.924;7.114;2022-10-17T10:20:32;16.90;1.00
22532;DHT22;11432;46.924;7.114;2022-10-17T10:23:06;17.30;1.00
22532;DHT22;11432;46.924;7.114;2022-10-17T10:25:32;17.70;1.00
22532;DHT22;11432;46.924;7.114;2022-10-17T10:27:59;18.00;1.00
22532;DHT22;11432;46.924;7.114;2022-10-17T10:30:28;18.20;23.20
22532;DHT22;11432;46.924;7.114;2022-10-17T10:32:56;18.20;17.40
22532;DHT22;11432;46.924;7.114;2022-10-17T10:37:56;18.90;19.30
22532;DHT22;11432;46.924;7.114;2022-10-17T10:40:30;19.50;16.80
22532;DHT22;11432;46.924;7.114;2022-10-17T10:42:58;20.10;53.70
22532;DHT22;11432;46.924;7.114;2022-10-17T10:45:39;20.40;20.30
22532;DHT22;11432;46.924;7.114;2022-10-17T10:51:12;22.00;61.80
22532;DHT22;11432;46.924;7.114;2022-10-17T10:53:55;22.20;52.30
22532;DHT22;11432;46.924;7.114;2022-10-17T10:56:36;22.10;45.00
22532;DHT22;11432;46.924;7.114;2022-10-17T11:02:00;22.20;42.40
22532;DHT22;11432;46.924;7.114;2022-10-17T11:04:35;22.60;49.00
22532;DHT22;11432;46.924;7.114;2022-10-17T11:12:41;24.10;35.80
22532;DHT22;11432;46.924;7.114;2022-10-17T11:17:52;25.10;46.00
22532;DHT22;11432;46.924;7.114;2022-10-17T11:22:48;25.50;38.60
22532;DHT22;11432;46.924;7.114;2022-10-17T11:25:39;25.80;39.60
22532;DHT22;11432;46.924;7.114;2022-10-17T11:28:16;25.80;35.80
22532;DHT22;11432;46.924;7.114;2022-10-17T11:30:56;25.80;34.50
22532;DHT22;11432;46.924;7.114;2022-10-17T11:33:30;25.80;26.90
22532;DHT22;11432;46.924;7.114;2022-10-17T11:36:04;26.10;27.40
22532;DHT22;11432;46.924;7.114;2022-10-17T11:46:36;26.40;28.40
22532;DHT22;11432;46.924;7.114;2022-10-17T11:49:11;26.00;23.70
22532;DHT22;11432;46.924;7.114;2022-10-17T11:54:44;25.50;18.60
22532;DHT22;11432;46.924;7.114;2022-10-17T12:02:59;26.50;18.50
22532;DHT22;11432;46.924;7.114;2022-10-17T12:09:38;27.40;23.30
22532;DHT22;11432;46.924;7.114;2022-10-17T12:11:59;27.80;21.90
22532;DHT22;11432;46.924;7.114;2022-10-17T12:14:45;27.80;11.00
22532;DHT22;11432;46.924;7.114;2022-10-17T12:17:34;27.60;14.10
22532;DHT22;11432;46.924;7.114;2022-10-17T12:25:20;27.50;12.80
22532;DHT22;11432;46.924;7.114;2022-10-17T12:27:47;27.90;12.30
22532;DHT22;11432;46.924;7.114;2022-10-17T12:30:24;28.80;3.40
22532;DHT22;11432;46.924;7.114;2022-10-17T12:35:22;28.20;8.50
22532;DHT22;11432;46.924;7.114;2022-10-17T12:46:02;27.30;1.00
22532;DHT22;11432;46.924;7.114;2022-10-17T12:56:33;26.50;17.30
22532;DHT22;11432;46.924;7.114;2022-10-17T12:59:00;26.10;18.00
22532;DHT22;11432;46.924;7.114;2022-10-17T13:01:31;25.80;15.10
22532;DHT22;11432;46.924;7.114;2022-10-17T13:03:58;25.80;11.70
22532;DHT22;11432;46.924;7.114;2022-10-17T13:06:31;26.10;11.20
22532;DHT22;11432;46.924;7.114;2022-10-17T13:09:14;26.00;10.50
22532;DHT22;11432;46.924;7.114;2022-10-17T13:11:42;26.00;15.60
22532;DHT22;11432;46.924;7.114;2022-10-17T13:14:12;26.10;12.90
22532;DHT22;11432;46.924;7.114;2022-10-17T13:16:49;26.10;14.20
22532;DHT22;11432;46.924;7.114;2022-10-17T13:19:20;25.60;14.80
22532;DHT22;11432;46.924;7.114;2022-10-17T13:22:01;25.70;14.90
22532;DHT22;11432;46.924;7.114;2022-10-17T13:24:28;25.80;8.40
22532;DHT22;11432;46.924;7.114;2022-10-17T13:26:54;25.90;7.70
22532;DHT22;11432;46.924;7.114;2022-10-17T13:29:20;25.60;5.50
22532;DHT22;11432;46.924;7.114;2022-10-17T13:31:52;25.80;11.00
22532;DHT22;11432;46.924;7.114;2022-10-17T13:34:23;25.80;5.70
22532;DHT22;11432;46.924;7.114;2022-10-17T13:36:52;26.30;1.00
22532;DHT22;11432;46.924;7.114;2022-10-17T13:39:21;26.80;1.00
22532;DHT22;11432;46.924;7.114;2022-10-17T13:41:47;27.10;1.00
22532;DHT22;11432;46.924;7.114;2022-10-17T13:44:18;27.10;1.00
22532;DHT22;11432;46.924;7.114;2022-10-17T13:46:45;27.30;1.00
22532;DHT22;11432;46.924;7.114;2022-10-17T13:49:15;27.40;1.00
22532;DHT22;11432;46.924;7.114;2022-10-17T13:51:47;27.00;1.00
22532;DHT22;11432;46.924;7.114;2022-10-17T13:54:43;27.40;1.00
22532;DHT22;11432;46.924;7.114;2022-10-17T13:57:29;27.70;1.00
22532;DHT22;11432;46.924;7.114;2022-10-17T14:00:05;27.50;1.00
22532;DHT22;11432;46.924;7.114;2022-10-17T14:02:33;27.10;1.00
22532;DHT22;11432;46.924;7.114;2022-10-17T14:05:12;27.10;1.00
22532;DHT22;11432;46.924;7.114;2022-10-17T14:07:53;27.10;1.00
22532;DHT22;11432;46.924;7.114;2022-10-17T14:10:22;27.20;1.00
22532;DHT22;11432;46.924;7.114;2022-10-17T14:12:50;27.40;1.00
22532;DHT22;11432;46.924;7.114;2022-10-17T14:15:17;27.20;1.00
22532;DHT22;11432;46.924;7.114;2022-10-17T14:17:44;27.10;1.00
22532;DHT22;11432;46.924;7.114;2022-10-17T14:20:18;26.90;1.00
22532;DHT22;11432;46.924;7.114;2022-10-17T14:25:31;24.50;1.00
22532;DHT22;11432;46.924;7.114;2022-10-17T14:30:35;23.10;1.00
22532;DHT22;11432;46.924;7.114;2022-10-17T14:33:02;22.70;1.00
22532;DHT22;11432;46.924;7.114;2022-10-17T14:35:29;22.50;1.00
22532;DHT22;11432;46.924;7.114;2022-10-17T14:38:00;22.30;1.00
22532;DHT22;11432;46.924;7.114;2022-10-17T14:40:28;22.20;1.00
22532;DHT22;11432;46.924;7.114;2022-10-17T14:42:56;22.10;1.00
22532;DHT22;11432;46.924;7.114;2022-10-17T14:45:29;22.10;1.00
22532;DHT22;11432;46.924;7.114;2022-10-17T14:48:01;22.00;1.00
22532;DHT22;11432;46.924;7.114;2022-10-17T14:50:29;22.00;99.90
22532;DHT22;11432;46.924;7.114;2022-10-17T14:55:35;21.80;99.90
22532;DHT22;11432;46.924;7.114;2022-10-17T14:58:17;21.70;99.90
22532;DHT22;11432;46.924;7.114;2022-10-17T15:00:43;21.60;99.90
22532;DHT22;11432;46.924;7.114;2022-10-17T15:03:09;21.60;99.90
22532;DHT22;11432;46.924;7.114;2022-10-17T15:05:34;21.50;99.90
22532;DHT22;11432;46.924;7.114;2022-10-17T15:08:00;21.50;1.00
22532;DHT22;11432;46.924;7.114;2022-10-17T15:10:36;21.50;99.90
22532;DHT22;11432;46.924;7.114;2022-10-17T15:13:06;21.50;99.90
22532;DHT22;11432;46.924;7.114;2022-10-17T15:15:32;21.50;99.90
22532;DHT22;11432;46.924;7.114;2022-10-17T15:17:58;21.50;99.90
22532;DHT22;11432;46.924;7.114;2022-10-17T15:20:25;21.40;99.90
22532;DHT22;11432;46.924;7.114;2022-10-17T15:22:57;21.40;99.90
22532;DHT22;11432;46.924;7.114;2022-10-17T15:25:23;21.40;99.90
22532;DHT22;11432;46.924;7.114;2022-10-17T15:27:49;21.40;99.90
22532;DHT22;11432;46.924;7.114;2022-10-17T15:30:29;21.30;99.90
22532;DHT22;11432;46.924;7.114;2022-10-17T15:32:57;21.30;99.90
22532;DHT22;11432;46.924;7.114;2022-10-17T15:35:23;21.30;99.90
22532;DHT22;11432;46.924;7.114;2022-10-17T15:37:49;21.30;99.90
22532;DHT22;11432;46.924;7.114;2022-10-17T15:40:18;21.20;99.90
22532;DHT22;11432;46.924;7.114;2022-10-17T15:42:44;21.20;99.90
22532;DHT22;11432;46.924;7.114;2022-10-17T15:45:11;21.20;99.90
22532;DHT22;11432;46.924;7.114;2022-10-17T15:47:37;21.20;99.90
22532;DHT22;11432;46.924;7.114;2022-10-17T15:50:04;21.10;99.90
22532;DHT22;11432;46.924;7.114;2022-10-17T15:52:31;21.10;99.90
22532;DHT22;11432;46.924;7.114;2022-10-17T15:54:57;21.10;99.90
22532;DHT22;11432;46.924;7.114;2022-10-17T15:57:35;21.00;99.90
22532;DHT22;11432;46.924;7.114;2022-10-17T16:00:04;21.00;99.90
22532;DHT22;11432;46.924;7.114;2022-10-17T16:02:30;20.90;99.90
22532;DHT22;11432;46.924;7.114;2022-10-17T16:04:58;20.90;99.90
22532;DHT22;11432;46.924;7.114;2022-10-17T16:07:24;20.80;99.90
22532;DHT22;11432;46.924;7.114;2022-10-17T16:09:49;20.70;99.90
22532;DHT22;11432;46.924;7.114;2022-10-17T16:12:20;20.60;99.90
22532;DHT22;11432;46.924;7.114;2022-10-17T16:14:47;20.60;99.90
22532;DHT22;11432;46.924;7.114;2022-10-17T16:17:16;20.50;99.90
22532;DHT22;11432;46.924;7.114;2022-10-17T16:19:42;20.40;99.90
22532;DHT22;11432;46.924;7.114;2022-10-17T16:22:29;20.20;1.00
22532;DHT22;11432;46.924;7.114;2022-10-17T16:25:01;20.20;1.00
22532;DHT22;11432;46.924;7.114;2022-10-17T16:27:36;20.10;1.00
22532;DHT22;11432;46.924;7.114;2022-10-17T16:30:06;20.00;1.00
22532;DHT22;11432;46.924;7.114;2022-10-17T16:32:32;20.00;1.00
22532;DHT22;11432;46.924;7.114;2022-10-17T16:34:58;20.00;1.00
22532;DHT22;11432;46.924;7.114;2022-10-17T16:37:25;19.90;1.00
22532;DHT22;11432;46.924;7.114;2022-10-17T16:39:51;19.70;1.00
22532;DHT22;11432;46.924;7.114;2022-10-17T16:42:19;19.50;1.00
22532;DHT22;11432;46.924;7.114;2022-10-17T16:44:45;19.30;1.00
22532;DHT22;11432;46.924;7.114;2022-10-17T16:47:11;19.10;1.00
22532;DHT22;11432;46.924;7.114;2022-10-17T16:49:37;19.10;1.00
22532;DHT22;11432;46.924;7.114;2022-10-17T16:52:03;19.00;1.00
22532;DHT22;11432;46.924;7.114;2022-10-17T16:54:29;18.80;1.00
22532;DHT22;11432;46.924;7.114;2022-10-17T16:56:54;18.70;1.00
22532;DHT22;11432;46.924;7.114;2022-10-17T16:59:22;18.50;1.00
22532;DHT22;11432;46.924;7.114;2022-10-17T17:01:48;18.50;1.00
22532;DHT22;11432;46.924;7.114;2022-10-17T17:04:14;18.40;1.00
22532;DHT22;11432;46.924;7.114;2022-10-17T17:06:39;18.30;1.00
22532;DHT22;11432;46.924;7.114;2022-10-17T17:09:05;18.30;1.00
22532;DHT22;11432;46.924;7.114;2022-10-17T17:11:31;18.10;1.00
22532;DHT22;11432;46.924;7.114;2022-10-17T17:13:58;17.90;1.00
22532;DHT22;11432;46.924;7.114;2022-10-17T17:16:25;17.90;1.00
22532;DHT22;11432;46.924;7.114;2022-10-17T17:18:55;17.80;1.00
22532;DHT22;11432;46.924;7.114;2022-10-17T17:21:22;17.70;1.00
22532;DHT22;11432;46.924;7.114;2022-10-17T17:23:48;17.70;1.00
22532;DHT22;11432;46.924;7.114;2022-10-17T17:26:19;17.60;1.00
22532;DHT22;11432;46.924;7.114;2022-10-17T17:28:46;17.60;3.10
22532;DHT22;11432;46.924;7.114;2022-10-17T17:31:14;17.40;27.50
22532;DHT22;11432;46.924;7.114;2022-10-17T17:33:40;17.40;26.60
22532;DHT22;11432;46.924;7.114;2022-10-17T17:36:07;17.40;37.40
22532;DHT22;11432;46.924;7.114;2022-10-17T17:38:35;17.30;51.70
22532;DHT22;11432;46.924;7.114;2022-10-17T17:41:02;17.30;59.50
22532;DHT22;11432;46.924;7.114;2022-10-17T17:43:28;17.20;58.80
22532;DHT22;11432;46.924;7.114;2022-10-17T17:45:54;17.20;74.70
22532;DHT22;11432;46.924;7.114;2022-10-17T17:48:20;17.10;80.10
22532;DHT22;11432;46.924;7.114;2022-10-17T17:50:47;17.00;99.90
22532;DHT22;11432;46.924;7.114;2022-10-17T17:53:14;16.90;99.90
22532;DHT22;11432;46.924;7.114;2022-10-17T17:55:40;16.90;99.90
22532;DHT22;11432;46.924;7.114;2022-10-17T17:58:06;16.80;99.90
22532;DHT22;11432;46.924;7.114;2022-10-17T18:00:33;16.80;99.90
22532;DHT22;11432;46.924;7.114;2022-10-17T18:02:59;16.80;99.90
22532;DHT22;11432;46.924;7.114;2022-10-17T18:05:26;16.70;99.90
22532;DHT22;11432;46.924;7.114;2022-10-17T18:07:52;16.70;99.90
22532;DHT22;11432;46.924;7.114;2022-10-17T18:10:17;16.60;99.90